sensor_id;sensor_type;location;lat;lon;timestamp;P1;durP1;ratioP1;P2;durP2;ratioP2
56599;SDS011;51832;48.152;11.530;2023-01-19T00:00:53;16.25;;;8.07;;
56599;SDS011;51832;48.152;11.530;2023-01-19T00:05:53;15.68;;;7.93;;
56599;SDS011;51832;48.152;11.530;2023-01-19T00:10:53;18.27;;;8.07;;
56599;SDS011;51832;48.152;11.530;2023-01-19T00:15:54;14.93;;;7.80;;
56599;SDS011;51832;48.152;11.530;2023-01-19T00:20:54;13.88;;;7.53;;
56599;SDS011;51832;48.152;11.530;2023-01-19T00:25:55;12.32;;;6.70;;
56599;SDS011;51832;48.152;11.530;2023-01-19T00:30:55;12.35;;;7.10;;
56599;SDS011;51832;48.152;11.530;2023-01-19T00:35:55;12.70;;;7.22;;
56599;SDS011;51832;48.152;11.530;2023-01-19T00:40:56;15.38;;;6.72;;
56599;SDS011;51832;48.152;11.530;2023-01-19T00:45:56;11.85;;;7.18;;
56599;SDS011;51832;48.152;11.530;2023-01-19T00:50:57;16.15;;;7.75;;
56599;SDS011;51832;48.152;11.530;2023-01-19T00:55:58;13.80;;;7.47;;
56599;SDS011;51832;48.152;11.530;2023-01-19T01:00:59;11.73;;;6.93;;
56599;SDS011;51832;48.152;11.530;2023-01-19T01:06:02;12.52;;;6.68;;
56599;SDS011;51832;48.152;11.530;2023-01-19T01:11:05;11.60;;;6.28;;
56599;SDS011;51832;48.152;11.530;2023-01-19T01:16:06;14.15;;;6.50;;
56599;SDS011;51832;48.152;11.530;2023-01-19T01:21:08;14.63;;;7.60;;
56599;SDS011;51832;48.152;11.530;2023-01-19T01:26:11;12.82;;;6.10;;
56599;SDS011;51832;48.152;11.530;2023-01-19T01:31:12;14.02;;;6.88;;
56599;SDS011;51832;48.152;11.530;2023-01-19T01:36:12;11.00;;;6.60;;
56599;SDS011;51832;48.152;11.530;2023-01-19T01:41:13;11.82;;;7.55;;
56599;SDS011;51832;48.152;11.530;2023-01-19T01:46:14;15.23;;;7.90;;
56599;SDS011;51832;48.152;11.530;2023-01-19T01:51:58;12.68;;;6.50;;
56599;SDS011;51832;48.152;11.530;2023-01-19T01:56:49;12.32;;;7.45;;
56599;SDS011;51832;48.152;11.530;2023-01-19T02:01:52;13.85;;;7.95;;
56599;SDS011;51832;48.152;11.530;2023-01-19T02:07:19;11.18;;;6.35;;
56599;SDS011;51832;48.152;11.530;2023-01-19T02:12:45;14.38;;;6.50;;
56599;SDS011;51832;48.152;11.530;2023-01-19T02:18:04;12.07;;;6.38;;
56599;SDS011;51832;48.152;11.530;2023-01-19T02:23:06;8.07;;;5.53;;
56599;SDS011;51832;48.152;11.530;2023-01-19T02:28:14;8.25;;;4.93;;
56599;SDS011;51832;48.152;11.530;2023-01-19T02:33:15;9.95;;;5.40;;
56599;SDS011;51832;48.152;11.530;2023-01-19T02:38:16;8.20;;;4.88;;
56599;SDS011;51832;48.152;11.530;2023-01-19T02:48:20;8.82;;;4.35;;
56599;SDS011;51832;48.152;11.530;2023-01-19T03:03:55;6.68;;;4.00;;
56599;SDS011;51832;48.152;11.530;2023-01-19T03:09:04;7.03;;;3.85;;
56599;SDS011;51832;48.152;11.530;2023-01-19T03:14:13;8.20;;;4.72;;
56599;SDS011;51832;48.152;11.530;2023-01-19T03:19:24;11.10;;;5.35;;
56599;SDS011;51832;48.152;11.530;2023-01-19T03:24:28;11.40;;;6.03;;
56599;SDS011;51832;48.152;11.530;2023-01-19T03:29:33;13.10;;;6.45;;
56599;SDS011;51832;48.152;11.530;2023-01-19T03:39:38;10.52;;;5.97;;
56599;SDS011;51832;48.152;11.530;2023-01-19T03:44:39;10.10;;;6.15;;
56599;SDS011;51832;48.152;11.530;2023-01-19T03:49:42;13.57;;;7.60;;
56599;SDS011;51832;48.152;11.530;2023-01-19T03:54:44;12.05;;;7.80;;
56599;SDS011;51832;48.152;11.530;2023-01-19T03:59:45;14.52;;;7.72;;
56599;SDS011;51832;48.152;11.530;2023-01-19T04:04:45;12.82;;;7.28;;
56599;SDS011;51832;48.152;11.530;2023-01-19T04:09:46;11.55;;;6.35;;
56599;SDS011;51832;48.152;11.530;2023-01-19T04:14:46;11.68;;;7.10;;
56599;SDS011;51832;48.152;11.530;2023-01-19T04:19:47;13.00;;;7.82;;
56599;SDS011;51832;48.152;11.530;2023-01-19T04:24:48;13.48;;;7.15;;
56599;SDS011;51832;48.152;11.530;2023-01-19T04:29:48;13.95;;;8.77;;
56599;SDS011;51832;48.152;11.530;2023-01-19T04:34:49;14.65;;;8.73;;
56599;SDS011;51832;48.152;11.530;2023-01-19T04:39:49;16.13;;;8.75;;
56599;SDS011;51832;48.152;11.530;2023-01-19T04:44:50;20.52;;;10.23;;
56599;SDS011;51832;48.152;11.530;2023-01-19T04:49:51;14.82;;;8.57;;
56599;SDS011;51832;48.152;11.530;2023-01-19T04:54:52;17.15;;;8.02;;
56599;SDS011;51832;48.152;11.530;2023-01-19T04:59:52;13.85;;;7.80;;
56599;SDS011;51832;48.152;11.530;2023-01-19T05:04:52;14.60;;;8.05;;
56599;SDS011;51832;48.152;11.530;2023-01-19T05:09:53;12.90;;;7.78;;
56599;SDS011;51832;48.152;11.530;2023-01-19T05:14:54;14.00;;;7.72;;
56599;SDS011;51832;48.152;11.530;2023-01-19T05:19:54;14.57;;;8.52;;
56599;SDS011;51832;48.152;11.530;2023-01-19T05:24:55;19.10;;;9.15;;
56599;SDS011;51832;48.152;11.530;2023-01-19T05:29:55;16.65;;;8.52;;
56599;SDS011;51832;48.152;11.530;2023-01-19T05:34:56;17.25;;;9.48;;
56599;SDS011;51832;48.152;11.530;2023-01-19T05:39:56;14.88;;;8.07;;
56599;SDS011;51832;48.152;11.530;2023-01-19T05:44:57;15.50;;;8.95;;
56599;SDS011;51832;48.152;11.530;2023-01-19T05:49:58;16.92;;;8.75;;
56599;SDS011;51832;48.152;11.530;2023-01-19T05:54:59;14.57;;;8.10;;
56599;SDS011;51832;48.152;11.530;2023-01-19T05:59:59;16.88;;;9.32;;
56599;SDS011;51832;48.152;11.530;2023-01-19T06:04:59;16.10;;;8.98;;
56599;SDS011;51832;48.152;11.530;2023-01-19T06:10:00;18.98;;;9.63;;
56599;SDS011;51832;48.152;11.530;2023-01-19T06:15:00;17.63;;;9.25;;
56599;SDS011;51832;48.152;11.530;2023-01-19T06:20:01;17.05;;;9.70;;
56599;SDS011;51832;48.152;11.530;2023-01-19T06:25:01;18.73;;;10.00;;
56599;SDS011;51832;48.152;11.530;2023-01-19T06:30:02;19.95;;;10.10;;
56599;SDS011;51832;48.152;11.530;2023-01-19T06:35:04;17.40;;;8.68;;
56599;SDS011;51832;48.152;11.530;2023-01-19T06:40:05;18.38;;;9.05;;
56599;SDS011;51832;48.152;11.530;2023-01-19T06:45:07;17.65;;;9.32;;
56599;SDS011;51832;48.152;11.530;2023-01-19T06:50:09;18.05;;;8.95;;
56599;SDS011;51832;48.152;11.530;2023-01-19T06:55:10;16.02;;;8.50;;
56599;SDS011;51832;48.152;11.530;2023-01-19T07:00:11;18.40;;;8.63;;
56599;SDS011;51832;48.152;11.530;2023-01-19T07:05:12;17.85;;;7.93;;
56599;SDS011;51832;48.152;11.530;2023-01-19T07:10:13;17.33;;;9.63;;
56599;SDS011;51832;48.152;11.530;2023-01-19T07:15:16;16.42;;;8.25;;
56599;SDS011;51832;48.152;11.530;2023-01-19T07:20:18;17.90;;;8.85;;
56599;SDS011;51832;48.152;11.530;2023-01-19T07:25:19;16.67;;;9.52;;
56599;SDS011;51832;48.152;11.530;2023-01-19T07:30:20;16.08;;;8.80;;
56599;SDS011;51832;48.152;11.530;2023-01-19T07:35:20;16.90;;;8.73;;
56599;SDS011;51832;48.152;11.530;2023-01-19T07:40:21;16.30;;;8.68;;
56599;SDS011;51832;48.152;11.530;2023-01-19T07:45:21;20.60;;;9.32;;
56599;SDS011;51832;48.152;11.530;2023-01-19T07:50:22;21.10;;;9.38;;
56599;SDS011;51832;48.152;11.530;2023-01-19T07:55:25;17.70;;;10.00;;
56599;SDS011;51832;48.152;11.530;2023-01-19T08:00:25;16.45;;;8.75;;
56599;SDS011;51832;48.152;11.530;2023-01-19T08:05:26;18.05;;;9.45;;
56599;SDS011;51832;48.152;11.530;2023-01-19T08:10:30;17.42;;;9.13;;
56599;SDS011;51832;48.152;11.530;2023-01-19T08:15:30;19.40;;;10.05;;
56599;SDS011;51832;48.152;11.530;2023-01-19T08:20:30;16.40;;;9.38;;
56599;SDS011;51832;48.152;11.530;2023-01-19T08:30:41;15.25;;;8.52;;
56599;SDS011;51832;48.152;11.530;2023-01-19T08:35:46;16.98;;;8.80;;
56599;SDS011;51832;48.152;11.530;2023-01-19T08:40:48;13.60;;;8.88;;
56599;SDS011;51832;48.152;11.530;2023-01-19T08:45:49;17.27;;;8.40;;
56599;SDS011;51832;48.152;11.530;2023-01-19T08:50:51;15.23;;;8.07;;
56599;SDS011;51832;48.152;11.530;2023-01-19T08:55:55;14.10;;;7.45;;
56599;SDS011;51832;48.152;11.530;2023-01-19T09:00:58;16.08;;;7.93;;
56599;SDS011;51832;48.152;11.530;2023-01-19T09:05:59;13.18;;;7.70;;
56599;SDS011;51832;48.152;11.530;2023-01-19T09:10:59;14.32;;;8.38;;
56599;SDS011;51832;48.152;11.530;2023-01-19T09:16:01;17.60;;;9.45;;
56599;SDS011;51832;48.152;11.530;2023-01-19T09:21:06;15.43;;;8.13;;
56599;SDS011;51832;48.152;11.530;2023-01-19T09:26:08;13.13;;;7.35;;
56599;SDS011;51832;48.152;11.530;2023-01-19T09:31:09;15.75;;;8.43;;
56599;SDS011;51832;48.152;11.530;2023-01-19T09:36:09;16.52;;;8.85;;
56599;SDS011;51832;48.152;11.530;2023-01-19T09:41:18;15.93;;;8.27;;
56599;SDS011;51832;48.152;11.530;2023-01-19T09:46:23;13.43;;;7.78;;
56599;SDS011;51832;48.152;11.530;2023-01-19T09:51:42;11.27;;;6.85;;
56599;SDS011;51832;48.152;11.530;2023-01-19T09:56:45;13.20;;;7.30;;
56599;SDS011;51832;48.152;11.530;2023-01-19T10:07:18;12.02;;;6.80;;
56599;SDS011;51832;48.152;11.530;2023-01-19T10:12:27;13.30;;;7.28;;
56599;SDS011;51832;48.152;11.530;2023-01-19T10:22:59;12.27;;;7.50;;
56599;SDS011;51832;48.152;11.530;2023-01-19T10:28:03;13.02;;;6.50;;
56599;SDS011;51832;48.152;11.530;2023-01-19T10:33:03;12.48;;;6.30;;
56599;SDS011;51832;48.152;11.530;2023-01-19T10:38:04;13.65;;;6.53;;
56599;SDS011;51832;48.152;11.530;2023-01-19T10:48:39;8.35;;;4.57;;
56599;SDS011;51832;48.152;11.530;2023-01-19T10:59:03;11.32;;;5.63;;
56599;SDS011;51832;48.152;11.530;2023-01-19T11:04:19;8.30;;;5.10;;
56599;SDS011;51832;48.152;11.530;2023-01-19T11:09:25;6.95;;;4.40;;
56599;SDS011;51832;48.152;11.530;2023-01-19T11:14:26;7.22;;;5.35;;
56599;SDS011;51832;48.152;11.530;2023-01-19T11:19:30;7.43;;;4.65;;
56599;SDS011;51832;48.152;11.530;2023-01-19T11:24:35;6.65;;;4.07;;
56599;SDS011;51832;48.152;11.530;2023-01-19T11:34:37;8.93;;;4.18;;
56599;SDS011;51832;48.152;11.530;2023-01-19T11:40:14;8.27;;;4.30;;
56599;SDS011;51832;48.152;11.530;2023-01-19T11:45:14;6.57;;;4.45;;
56599;SDS011;51832;48.152;11.530;2023-01-19T11:50:27;8.05;;;4.70;;
56599;SDS011;51832;48.152;11.530;2023-01-19T11:55:36;10.43;;;4.70;;
56599;SDS011;51832;48.152;11.530;2023-01-19T12:00:53;7.03;;;4.20;;
56599;SDS011;51832;48.152;11.530;2023-01-19T12:06:19;7.68;;;4.82;;
56599;SDS011;51832;48.152;11.530;2023-01-19T12:11:25;7.95;;;4.32;;
56599;SDS011;51832;48.152;11.530;2023-01-19T12:16:33;6.80;;;4.43;;
56599;SDS011;51832;48.152;11.530;2023-01-19T12:21:38;6.57;;;4.07;;
56599;SDS011;51832;48.152;11.530;2023-01-19T12:42:28;7.00;;;3.92;;
56599;SDS011;51832;48.152;11.530;2023-01-19T12:47:29;8.48;;;4.75;;
56599;SDS011;51832;48.152;11.530;2023-01-19T12:52:41;9.30;;;4.60;;
56599;SDS011;51832;48.152;11.530;2023-01-19T13:18:28;10.07;;;4.80;;
56599;SDS011;51832;48.152;11.530;2023-01-19T13:28:49;8.52;;;3.85;;
56599;SDS011;51832;48.152;11.530;2023-01-19T13:33:54;8.82;;;3.90;;
56599;SDS011;51832;48.152;11.530;2023-01-19T13:38:58;6.95;;;3.92;;
56599;SDS011;51832;48.152;11.530;2023-01-19T13:44:12;6.45;;;4.00;;
56599;SDS011;51832;48.152;11.530;2023-01-19T13:54:30;7.47;;;4.50;;
56599;SDS011;51832;48.152;11.530;2023-01-19T13:59:30;5.32;;;3.53;;
56599;SDS011;51832;48.152;11.530;2023-01-19T14:04:31;7.47;;;2.85;;
56599;SDS011;51832;48.152;11.530;2023-01-19T14:09:32;4.38;;;2.72;;
56599;SDS011;51832;48.152;11.530;2023-01-19T14:14:33;8.60;;;2.90;;
56599;SDS011;51832;48.152;11.530;2023-01-19T14:19:53;3.83;;;2.38;;
56599;SDS011;51832;48.152;11.530;2023-01-19T14:24:55;5.80;;;2.88;;
56599;SDS011;51832;48.152;11.530;2023-01-19T14:30:19;4.55;;;2.85;;
56599;SDS011;51832;48.152;11.530;2023-01-19T14:35:22;6.85;;;3.58;;
56599;SDS011;51832;48.152;11.530;2023-01-19T14:40:24;6.63;;;2.92;;
56599;SDS011;51832;48.152;11.530;2023-01-19T14:50:36;4.65;;;2.80;;
56599;SDS011;51832;48.152;11.530;2023-01-19T14:55:46;7.78;;;3.35;;
56599;SDS011;51832;48.152;11.530;2023-01-19T15:00:54;5.35;;;3.17;;
56599;SDS011;51832;48.152;11.530;2023-01-19T15:05:55;6.10;;;3.28;;
56599;SDS011;51832;48.152;11.530;2023-01-19T15:11:00;5.13;;;3.00;;
56599;SDS011;51832;48.152;11.530;2023-01-19T15:16:08;6.45;;;3.35;;
56599;SDS011;51832;48.152;11.530;2023-01-19T15:21:11;5.22;;;3.10;;
56599;SDS011;51832;48.152;11.530;2023-01-19T15:26:20;4.43;;;2.90;;
56599;SDS011;51832;48.152;11.530;2023-01-19T15:31:23;6.03;;;2.90;;
56599;SDS011;51832;48.152;11.530;2023-01-19T15:36:25;5.57;;;3.17;;
56599;SDS011;51832;48.152;11.530;2023-01-19T15:41:26;6.32;;;3.17;;
56599;SDS011;51832;48.152;11.530;2023-01-19T15:46:31;6.15;;;3.17;;
56599;SDS011;51832;48.152;11.530;2023-01-19T15:51:32;6.15;;;4.15;;
56599;SDS011;51832;48.152;11.530;2023-01-19T15:56:32;6.43;;;3.88;;
56599;SDS011;51832;48.152;11.530;2023-01-19T16:01:33;7.80;;;4.60;;
56599;SDS011;51832;48.152;11.530;2023-01-19T16:06:34;9.25;;;4.43;;
56599;SDS011;51832;48.152;11.530;2023-01-19T16:11:34;7.97;;;4.18;;
56599;SDS011;51832;48.152;11.530;2023-01-19T16:16:36;6.72;;;3.85;;
56599;SDS011;51832;48.152;11.530;2023-01-19T16:21:37;6.32;;;4.30;;
56599;SDS011;51832;48.152;11.530;2023-01-19T16:26:38;8.18;;;4.30;;
56599;SDS011;51832;48.152;11.530;2023-01-19T16:31:39;6.28;;;4.10;;
56599;SDS011;51832;48.152;11.530;2023-01-19T16:36:41;10.37;;;4.23;;
56599;SDS011;51832;48.152;11.530;2023-01-19T16:41:42;6.68;;;3.65;;
56599;SDS011;51832;48.152;11.530;2023-01-19T16:46:45;5.88;;;3.50;;
56599;SDS011;51832;48.152;11.530;2023-01-19T16:51:46;8.32;;;4.30;;
56599;SDS011;51832;48.152;11.530;2023-01-19T16:56:48;7.43;;;4.18;;
56599;SDS011;51832;48.152;11.530;2023-01-19T17:01:49;7.78;;;4.43;;
56599;SDS011;51832;48.152;11.530;2023-01-19T17:06:50;12.05;;;5.63;;
56599;SDS011;51832;48.152;11.530;2023-01-19T17:11:51;6.70;;;3.95;;
56599;SDS011;51832;48.152;11.530;2023-01-19T17:16:51;6.50;;;4.60;;
56599;SDS011;51832;48.152;11.530;2023-01-19T17:21:52;8.13;;;4.20;;
56599;SDS011;51832;48.152;11.530;2023-01-19T17:26:52;7.55;;;3.90;;
56599;SDS011;51832;48.152;11.530;2023-01-19T17:31:52;8.57;;;4.40;;
56599;SDS011;51832;48.152;11.530;2023-01-19T17:36:53;7.70;;;3.75;;
56599;SDS011;51832;48.152;11.530;2023-01-19T17:42:01;7.93;;;4.28;;
56599;SDS011;51832;48.152;11.530;2023-01-19T17:47:02;7.88;;;4.43;;
56599;SDS011;51832;48.152;11.530;2023-01-19T17:52:02;8.50;;;4.75;;
56599;SDS011;51832;48.152;11.530;2023-01-19T17:57:03;7.15;;;4.30;;
56599;SDS011;51832;48.152;11.530;2023-01-19T18:02:03;6.55;;;4.40;;
56599;SDS011;51832;48.152;11.530;2023-01-19T18:07:03;9.13;;;4.30;;
56599;SDS011;51832;48.152;11.530;2023-01-19T18:12:04;6.75;;;3.88;;
56599;SDS011;51832;48.152;11.530;2023-01-19T18:17:05;8.15;;;4.28;;
56599;SDS011;51832;48.152;11.530;2023-01-19T18:22:05;6.15;;;3.95;;
56599;SDS011;51832;48.152;11.530;2023-01-19T18:27:05;7.88;;;4.30;;
56599;SDS011;51832;48.152;11.530;2023-01-19T18:32:06;6.18;;;3.97;;
56599;SDS011;51832;48.152;11.530;2023-01-19T18:37:06;6.50;;;4.18;;
56599;SDS011;51832;48.152;11.530;2023-01-19T18:42:07;6.43;;;4.03;;
56599;SDS011;51832;48.152;11.530;2023-01-19T18:47:07;11.02;;;4.93;;
56599;SDS011;51832;48.152;11.530;2023-01-19T18:52:07;6.00;;;4.30;;
56599;SDS011;51832;48.152;11.530;2023-01-19T18:57:08;8.20;;;4.28;;
56599;SDS011;51832;48.152;11.530;2023-01-19T19:02:11;9.20;;;5.63;;
56599;SDS011;51832;48.152;11.530;2023-01-19T19:07:12;8.50;;;5.85;;
56599;SDS011;51832;48.152;11.530;2023-01-19T19:12:12;8.73;;;4.65;;
56599;SDS011;51832;48.152;11.530;2023-01-19T19:17:13;8.85;;;4.20;;
56599;SDS011;51832;48.152;11.530;2023-01-19T19:22:13;6.45;;;3.80;;
56599;SDS011;51832;48.152;11.530;2023-01-19T19:27:13;9.48;;;4.72;;
56599;SDS011;51832;48.152;11.530;2023-01-19T19:32:14;8.70;;;4.35;;
56599;SDS011;51832;48.152;11.530;2023-01-19T19:37:19;8.48;;;4.65;;
56599;SDS011;51832;48.152;11.530;2023-01-19T19:42:19;8.43;;;4.55;;
56599;SDS011;51832;48.152;11.530;2023-01-19T19:47:19;8.13;;;4.90;;
56599;SDS011;51832;48.152;11.530;2023-01-19T19:52:20;9.30;;;4.75;;
56599;SDS011;51832;48.152;11.530;2023-01-19T19:57:20;7.53;;;4.20;;
56599;SDS011;51832;48.152;11.530;2023-01-19T20:02:21;8.93;;;4.72;;
56599;SDS011;51832;48.152;11.530;2023-01-19T20:07:21;5.72;;;3.90;;
56599;SDS011;51832;48.152;11.530;2023-01-19T20:12:21;7.03;;;4.53;;
56599;SDS011;51832;48.152;11.530;2023-01-19T20:17:22;6.00;;;4.22;;
56599;SDS011;51832;48.152;11.530;2023-01-19T20:22:23;7.07;;;4.38;;
56599;SDS011;51832;48.152;11.530;2023-01-19T20:27:24;6.88;;;4.07;;
56599;SDS011;51832;48.152;11.530;2023-01-19T20:32:24;8.30;;;4.60;;
56599;SDS011;51832;48.152;11.530;2023-01-19T20:37:24;8.27;;;4.28;;
56599;SDS011;51832;48.152;11.530;2023-01-19T20:42:25;7.40;;;4.30;;
56599;SDS011;51832;48.152;11.530;2023-01-19T20:47:25;8.82;;;4.65;;
56599;SDS011;51832;48.152;11.530;2023-01-19T20:52:26;9.52;;;4.50;;
56599;SDS011;51832;48.152;11.530;2023-01-19T20:57:26;9.82;;;5.32;;
56599;SDS011;51832;48.152;11.530;2023-01-19T21:02:27;9.93;;;4.07;;
56599;SDS011;51832;48.152;11.530;2023-01-19T21:07:27;7.32;;;4.75;;
56599;SDS011;51832;48.152;11.530;2023-01-19T21:12:27;7.25;;;4.05;;
56599;SDS011;51832;48.152;11.530;2023-01-19T21:17:28;8.80;;;4.70;;
56599;SDS011;51832;48.152;11.530;2023-01-19T21:22:28;8.52;;;4.68;;
56599;SDS011;51832;48.152;11.530;2023-01-19T21:27:29;9.68;;;5.18;;
56599;SDS011;51832;48.152;11.530;2023-01-19T21:32:29;6.97;;;4.78;;
56599;SDS011;51832;48.152;11.530;2023-01-19T21:37:29;7.80;;;4.33;;
56599;SDS011;51832;48.152;11.530;2023-01-19T21:42:30;8.95;;;5.05;;
56599;SDS011;51832;48.152;11.530;2023-01-19T21:47:30;7.28;;;4.68;;
56599;SDS011;51832;48.152;11.530;2023-01-19T21:52:31;9.27;;;4.82;;
56599;SDS011;51832;48.152;11.530;2023-01-19T21:57:31;8.00;;;4.93;;
56599;SDS011;51832;48.152;11.530;2023-01-19T22:02:31;10.80;;;5.10;;
56599;SDS011;51832;48.152;11.530;2023-01-19T22:07:32;7.22;;;4.35;;
56599;SDS011;51832;48.152;11.530;2023-01-19T22:12:32;7.07;;;4.40;;
56599;SDS011;51832;48.152;11.530;2023-01-19T22:17:33;8.77;;;4.50;;
56599;SDS011;51832;48.152;11.530;2023-01-19T22:22:33;23.08;;;10.77;;
56599;SDS011;51832;48.152;11.530;2023-01-19T22:27:34;9.40;;;5.07;;
56599;SDS011;51832;48.152;11.530;2023-01-19T22:32:36;10.90;;;5.10;;
56599;SDS011;51832;48.152;11.530;2023-01-19T22:37:36;11.35;;;5.57;;
56599;SDS011;51832;48.152;11.530;2023-01-19T22:42:37;9.30;;;5.22;;
56599;SDS011;51832;48.152;11.530;2023-01-19T22:47:37;8.18;;;4.63;;
56599;SDS011;51832;48.152;11.530;2023-01-19T22:52:37;8.45;;;4.90;;
56599;SDS011;51832;48.152;11.530;2023-01-19T22:57:38;11.13;;;4.75;;
56599;SDS011;51832;48.152;11.530;2023-01-19T23:02:38;8.05;;;4.28;;
56599;SDS011;51832;48.152;11.530;2023-01-19T23:07:39;7.40;;;4.18;;
56599;SDS011;51832;48.152;11.530;2023-01-19T23:12:39;7.13;;;4.32;;
56599;SDS011;51832;48.152;11.530;2023-01-19T23:17:40;9.93;;;5.03;;
56599;SDS011;51832;48.152;11.530;2023-01-19T23:22:42;8.15;;;3.97;;
56599;SDS011;51832;48.152;11.530;2023-01-19T23:27:42;8.30;;;4.90;;
56599;SDS011;51832;48.152;11.530;2023-01-19T23:32:46;7.55;;;4.30;;
56599;SDS011;51832;48.152;11.530;2023-01-19T23:37:48;10.60;;;4.45;;
56599;SDS011;51832;48.152;11.530;2023-01-19T23:42:48;6.38;;;4.18;;
56599;SDS011;51832;48.152;11.530;2023-01-19T23:47:48;8.60;;;4.43;;
56599;SDS011;51832;48.152;11.530;2023-01-19T23:52:49;7.47;;;4.35;;
56599;SDS011;51832;48.152;11.530;2023-01-19T23:57:49;9.20;;;4.70;;
